sensor_id;sensor_type;location;lat;lon;timestamp;temperature;humidity
66726;HTU21D;53638;51.062;5.804;2022-12-18T00:01:18;-4.71;118.99
66726;HTU21D;53638;51.062;5.804;2022-12-18T00:03:45;-4.76;118.99
66726;HTU21D;53638;51.062;5.804;2022-12-18T00:06:14;-4.76;118.99
66726;HTU21D;53638;51.062;5.804;2022-12-18T00:08:41;-4.75;118.99
66726;HTU21D;53638;51.062;5.804;2022-12-18T00:11:11;-4.79;118.99
66726;HTU21D;53638;51.062;5.804;2022-12-18T00:13:38;-4.84;118.99
66726;HTU21D;53638;51.062;5.804;2022-12-18T00:16:07;-4.91;118.99
66726;HTU21D;53638;51.062;5.804;2022-12-18T00:18:34;-4.94;118.99
66726;HTU21D;53638;51.062;5.804;2022-12-18T00:21:02;-4.95;118.99
66726;HTU21D;53638;51.062;5.804;2022-12-18T00:23:33;-4.95;118.99
66726;HTU21D;53638;51.062;5.804;2022-12-18T00:26:01;-4.95;118.99
66726;HTU21D;53638;51.062;5.804;2022-12-18T00:28:30;-4.99;118.99
66726;HTU21D;53638;51.062;5.804;2022-12-18T00:31:02;-4.98;118.99
66726;HTU21D;53638;51.062;5.804;2022-12-18T00:33:29;-4.97;118.99
66726;HTU21D;53638;51.062;5.804;2022-12-18T00:36:01;-4.98;118.99
66726;HTU21D;53638;51.062;5.804;2022-12-18T00:38:28;-4.96;118.99
66726;HTU21D;53638;51.062;5.804;2022-12-18T00:40:54;-4.98;118.99
66726;HTU21D;53638;51.062;5.804;2022-12-18T00:43:20;-5.03;118.99
66726;HTU21D;53638;51.062;5.804;2022-12-18T00:45:46;-5.14;118.99
66726;HTU21D;53638;51.062;5.804;2022-12-18T00:48:11;-5.18;118.99
66726;HTU21D;53638;51.062;5.804;2022-12-18T00:50:37;-5.22;118.99
66726;HTU21D;53638;51.062;5.804;2022-12-18T00:53:03;-5.25;118.99
66726;HTU21D;53638;51.062;5.804;2022-12-18T00:55:29;-5.29;118.99
66726;HTU21D;53638;51.062;5.804;2022-12-18T00:57:56;-5.32;118.99
66726;HTU21D;53638;51.062;5.804;2022-12-18T01:00:22;-5.34;118.99
66726;HTU21D;53638;51.062;5.804;2022-12-18T01:02:47;-5.32;118.99
66726;HTU21D;53638;51.062;5.804;2022-12-18T01:05:14;-5.30;118.99
66726;HTU21D;53638;51.062;5.804;2022-12-18T01:07:41;-5.27;118.99
66726;HTU21D;53638;51.062;5.804;2022-12-18T01:10:11;-5.27;118.99
66726;HTU21D;53638;51.062;5.804;2022-12-18T01:12:37;-5.25;118.99
66726;HTU21D;53638;51.062;5.804;2022-12-18T01:15:04;-5.24;118.99
66726;HTU21D;53638;51.062;5.804;2022-12-18T01:17:30;-5.25;118.99
66726;HTU21D;53638;51.062;5.804;2022-12-18T01:19:56;-5.26;118.99
66726;HTU21D;53638;51.062;5.804;2022-12-18T01:22:22;-5.29;118.99
66726;HTU21D;53638;51.062;5.804;2022-12-18T01:24:48;-5.33;118.99
66726;HTU21D;53638;51.062;5.804;2022-12-18T01:27:14;-5.41;118.99
66726;HTU21D;53638;51.062;5.804;2022-12-18T01:29:39;-5.43;118.99
66726;HTU21D;53638;51.062;5.804;2022-12-18T01:32:05;-5.47;118.99
66726;HTU21D;53638;51.062;5.804;2022-12-18T01:34:31;-5.49;118.99
66726;HTU21D;53638;51.062;5.804;2022-12-18T01:36:57;-5.49;118.99
66726;HTU21D;53638;51.062;5.804;2022-12-18T01:39:23;-5.50;118.99
66726;HTU21D;53638;51.062;5.804;2022-12-18T01:41:49;-5.50;118.99
66726;HTU21D;53638;51.062;5.804;2022-12-18T01:44:54;-5.55;118.99
66726;HTU21D;53638;51.062;5.804;2022-12-18T01:47:33;-5.58;118.99
66726;HTU21D;53638;51.062;5.804;2022-12-18T01:52:33;-5.57;118.99
66726;HTU21D;53638;51.062;5.804;2022-12-18T01:55:00;-5.57;118.99
66726;HTU21D;53638;51.062;5.804;2022-12-18T01:57:28;-5.60;118.99
66726;HTU21D;53638;51.062;5.804;2022-12-18T01:59:59;-5.67;118.99
66726;HTU21D;53638;51.062;5.804;2022-12-18T02:02:27;-5.67;118.99
66726;HTU21D;53638;51.062;5.804;2022-12-18T02:04:54;-5.70;118.99
66726;HTU21D;53638;51.062;5.804;2022-12-18T02:12:44;-5.77;118.99
66726;HTU21D;53638;51.062;5.804;2022-12-18T02:15:23;-5.83;118.99
66726;HTU21D;53638;51.062;5.804;2022-12-18T02:18:03;-5.88;118.99
66726;HTU21D;53638;51.062;5.804;2022-12-18T02:20:36;-5.89;118.99
66726;HTU21D;53638;51.062;5.804;2022-12-18T02:23:38;-5.86;118.99
66726;HTU21D;53638;51.062;5.804;2022-12-18T02:26:34;-5.89;118.99
66726;HTU21D;53638;51.062;5.804;2022-12-18T02:29:08;-5.99;118.99
66726;HTU21D;53638;51.062;5.804;2022-12-18T02:31:51;-6.04;118.99
66726;HTU21D;53638;51.062;5.804;2022-12-18T02:34:21;-6.09;118.99
66726;HTU21D;53638;51.062;5.804;2022-12-18T02:36:49;-6.11;118.99
66726;HTU21D;53638;51.062;5.804;2022-12-18T02:39:22;-6.15;118.99
66726;HTU21D;53638;51.062;5.804;2022-12-18T02:41:58;-6.19;118.99
66726;HTU21D;53638;51.062;5.804;2022-12-18T02:44:24;-6.21;118.99
66726;HTU21D;53638;51.062;5.804;2022-12-18T02:46:52;-6.23;118.99
66726;HTU21D;53638;51.062;5.804;2022-12-18T02:49:36;-6.31;118.99
66726;HTU21D;53638;51.062;5.804;2022-12-18T02:55:35;-6.41;118.99
66726;HTU21D;53638;51.062;5.804;2022-12-18T02:58:15;-6.38;118.99
66726;HTU21D;53638;51.062;5.804;2022-12-18T03:01:06;-6.36;118.99
66726;HTU21D;53638;51.062;5.804;2022-12-18T03:03:43;-6.34;118.99
66726;HTU21D;53638;51.062;5.804;2022-12-18T03:06:27;-6.33;118.99
66726;HTU21D;53638;51.062;5.804;2022-12-18T03:09:01;-6.27;118.99
66726;HTU21D;53638;51.062;5.804;2022-12-18T03:11:34;-6.19;118.99
66726;HTU21D;53638;51.062;5.804;2022-12-18T03:14:23;-6.13;118.99
66726;HTU21D;53638;51.062;5.804;2022-12-18T03:16:54;-6.07;118.99
66726;HTU21D;53638;51.062;5.804;2022-12-18T03:19:27;-6.02;118.99
66726;HTU21D;53638;51.062;5.804;2022-12-18T03:22:02;-5.98;118.99
66726;HTU21D;53638;51.062;5.804;2022-12-18T03:24:36;-5.96;118.99
66726;HTU21D;53638;51.062;5.804;2022-12-18T03:27:12;-5.92;118.99
66726;HTU21D;53638;51.062;5.804;2022-12-18T03:29:47;-5.92;118.99
66726;HTU21D;53638;51.062;5.804;2022-12-18T03:32:28;-5.90;118.99
66726;HTU21D;53638;51.062;5.804;2022-12-18T03:35:02;-5.86;118.99
66726;HTU21D;53638;51.062;5.804;2022-12-18T03:37:33;-5.83;118.99
66726;HTU21D;53638;51.062;5.804;2022-12-18T03:39:59;-5.84;118.99
66726;HTU21D;53638;51.062;5.804;2022-12-18T03:42:29;-5.78;118.99
66726;HTU21D;53638;51.062;5.804;2022-12-18T03:45:08;-5.81;118.99
66726;HTU21D;53638;51.062;5.804;2022-12-18T03:47:44;-5.83;118.99
66726;HTU21D;53638;51.062;5.804;2022-12-18T03:50:25;-5.90;118.99
66726;HTU21D;53638;51.062;5.804;2022-12-18T03:53:17;-5.98;118.99
66726;HTU21D;53638;51.062;5.804;2022-12-18T03:55:48;-6.04;118.99
66726;HTU21D;53638;51.062;5.804;2022-12-18T03:58:20;-6.12;118.99
66726;HTU21D;53638;51.062;5.804;2022-12-18T04:00:58;-6.17;118.99
66726;HTU21D;53638;51.062;5.804;2022-12-18T04:03:28;-6.20;118.99
66726;HTU21D;53638;51.062;5.804;2022-12-18T04:05:59;-6.22;118.99
66726;HTU21D;53638;51.062;5.804;2022-12-18T04:08:28;-6.24;118.99
66726;HTU21D;53638;51.062;5.804;2022-12-18T04:11:02;-6.28;118.99
66726;HTU21D;53638;51.062;5.804;2022-12-18T04:13:31;-6.31;118.99
66726;HTU21D;53638;51.062;5.804;2022-12-18T04:16:00;-6.33;118.99
66726;HTU21D;53638;51.062;5.804;2022-12-18T04:18:27;-6.35;118.99
66726;HTU21D;53638;51.062;5.804;2022-12-18T04:20:53;-6.38;118.99
66726;HTU21D;53638;51.062;5.804;2022-12-18T04:23:19;-6.41;118.99
66726;HTU21D;53638;51.062;5.804;2022-12-18T04:25:47;-6.46;118.99
66726;HTU21D;53638;51.062;5.804;2022-12-18T04:28:18;-6.50;118.99
66726;HTU21D;53638;51.062;5.804;2022-12-18T04:30:44;-6.51;118.99
66726;HTU21D;53638;51.062;5.804;2022-12-18T04:33:16;-6.55;118.99
66726;HTU21D;53638;51.062;5.804;2022-12-18T04:35:42;-6.57;118.99
66726;HTU21D;53638;51.062;5.804;2022-12-18T04:38:09;-6.59;118.99
66726;HTU21D;53638;51.062;5.804;2022-12-18T04:40:39;-6.57;118.99
66726;HTU21D;53638;51.062;5.804;2022-12-18T04:43:11;-6.58;118.99
66726;HTU21D;53638;51.062;5.804;2022-12-18T04:45:37;-6.62;118.99
66726;HTU21D;53638;51.062;5.804;2022-12-18T04:48:03;-6.62;118.99
66726;HTU21D;53638;51.062;5.804;2022-12-18T04:50:31;-6.58;118.99
66726;HTU21D;53638;51.062;5.804;2022-12-18T04:52:57;-6.53;118.99
66726;HTU21D;53638;51.062;5.804;2022-12-18T04:55:24;-6.50;118.99
66726;HTU21D;53638;51.062;5.804;2022-12-18T04:57:50;-6.45;118.99
66726;HTU21D;53638;51.062;5.804;2022-12-18T05:00:19;-6.39;118.99
66726;HTU21D;53638;51.062;5.804;2022-12-18T05:02:45;-6.34;118.99
66726;HTU21D;53638;51.062;5.804;2022-12-18T05:05:11;-6.33;118.99
66726;HTU21D;53638;51.062;5.804;2022-12-18T05:07:37;-6.33;118.99
66726;HTU21D;53638;51.062;5.804;2022-12-18T05:10:03;-6.31;118.99
66726;HTU21D;53638;51.062;5.804;2022-12-18T05:12:35;-6.32;118.99
66726;HTU21D;53638;51.062;5.804;2022-12-18T05:15:20;-6.30;118.99
66726;HTU21D;53638;51.062;5.804;2022-12-18T05:17:46;-6.28;118.99
66726;HTU21D;53638;51.062;5.804;2022-12-18T05:20:12;-6.24;118.99
66726;HTU21D;53638;51.062;5.804;2022-12-18T05:22:38;-6.21;118.99
66726;HTU21D;53638;51.062;5.804;2022-12-18T05:25:04;-6.18;118.99
66726;HTU21D;53638;51.062;5.804;2022-12-18T05:27:30;-6.18;118.99
66726;HTU21D;53638;51.062;5.804;2022-12-18T05:29:56;-6.19;118.99
66726;HTU21D;53638;51.062;5.804;2022-12-18T05:32:21;-6.22;118.99
66726;HTU21D;53638;51.062;5.804;2022-12-18T05:34:47;-6.23;118.99
66726;HTU21D;53638;51.062;5.804;2022-12-18T05:37:13;-6.24;118.99
66726;HTU21D;53638;51.062;5.804;2022-12-18T05:39:39;-6.28;118.99
66726;HTU21D;53638;51.062;5.804;2022-12-18T05:42:04;-6.32;118.99
66726;HTU21D;53638;51.062;5.804;2022-12-18T05:44:30;-6.30;118.99
66726;HTU21D;53638;51.062;5.804;2022-12-18T05:46:56;-6.28;118.99
66726;HTU21D;53638;51.062;5.804;2022-12-18T05:49:22;-6.28;118.99
66726;HTU21D;53638;51.062;5.804;2022-12-18T05:51:48;-6.28;118.99
66726;HTU21D;53638;51.062;5.804;2022-12-18T05:54:13;-6.27;118.99
66726;HTU21D;53638;51.062;5.804;2022-12-18T05:56:39;-6.26;118.99
66726;HTU21D;53638;51.062;5.804;2022-12-18T05:59:05;-6.27;118.99
66726;HTU21D;53638;51.062;5.804;2022-12-18T06:01:31;-6.24;118.99
66726;HTU21D;53638;51.062;5.804;2022-12-18T06:03:57;-6.24;118.99
66726;HTU21D;53638;51.062;5.804;2022-12-18T06:06:25;-6.23;118.99
66726;HTU21D;53638;51.062;5.804;2022-12-18T06:08:53;-6.22;118.99
66726;HTU21D;53638;51.062;5.804;2022-12-18T06:11:23;-6.21;118.99
66726;HTU21D;53638;51.062;5.804;2022-12-18T06:13:51;-6.19;118.99
66726;HTU21D;53638;51.062;5.804;2022-12-18T06:16:17;-6.16;118.99
66726;HTU21D;53638;51.062;5.804;2022-12-18T06:18:43;-6.13;118.99
66726;HTU21D;53638;51.062;5.804;2022-12-18T06:21:09;-6.12;118.99
66726;HTU21D;53638;51.062;5.804;2022-12-18T06:23:35;-6.09;118.99
66726;HTU21D;53638;51.062;5.804;2022-12-18T06:26:05;-6.11;118.99
66726;HTU21D;53638;51.062;5.804;2022-12-18T06:28:31;-6.07;118.99
66726;HTU21D;53638;51.062;5.804;2022-12-18T06:30:57;-6.07;118.99
66726;HTU21D;53638;51.062;5.804;2022-12-18T06:33:26;-6.07;118.99
66726;HTU21D;53638;51.062;5.804;2022-12-18T06:35:54;-6.07;118.99
66726;HTU21D;53638;51.062;5.804;2022-12-18T06:38:24;-6.08;118.99
66726;HTU21D;53638;51.062;5.804;2022-12-18T06:40:50;-6.12;118.99
66726;HTU21D;53638;51.062;5.804;2022-12-18T06:43:16;-6.17;118.99
66726;HTU21D;53638;51.062;5.804;2022-12-18T06:45:42;-6.18;118.99
66726;HTU21D;53638;51.062;5.804;2022-12-18T06:48:08;-6.19;118.99
66726;HTU21D;53638;51.062;5.804;2022-12-18T06:50:34;-6.18;118.99
66726;HTU21D;53638;51.062;5.804;2022-12-18T06:52:59;-6.18;118.99
66726;HTU21D;53638;51.062;5.804;2022-12-18T06:55:25;-6.20;118.99
66726;HTU21D;53638;51.062;5.804;2022-12-18T06:57:51;-6.21;118.99
66726;HTU21D;53638;51.062;5.804;2022-12-18T07:00:17;-6.24;118.99
66726;HTU21D;53638;51.062;5.804;2022-12-18T07:02:43;-6.28;118.99
66726;HTU21D;53638;51.062;5.804;2022-12-18T07:05:09;-6.31;118.99
66726;HTU21D;53638;51.062;5.804;2022-12-18T07:07:38;-6.32;118.99
66726;HTU21D;53638;51.062;5.804;2022-12-18T07:10:04;-6.33;118.99
66726;HTU21D;53638;51.062;5.804;2022-12-18T07:12:30;-6.31;118.99
66726;HTU21D;53638;51.062;5.804;2022-12-18T07:14:56;-6.29;118.99
66726;HTU21D;53638;51.062;5.804;2022-12-18T07:17:22;-6.24;118.99
66726;HTU21D;53638;51.062;5.804;2022-12-18T07:19:48;-6.22;118.99
66726;HTU21D;53638;51.062;5.804;2022-12-18T07:22:13;-6.17;118.99
66726;HTU21D;53638;51.062;5.804;2022-12-18T07:24:39;-6.15;118.99
66726;HTU21D;53638;51.062;5.804;2022-12-18T07:27:05;-6.14;118.99
66726;HTU21D;53638;51.062;5.804;2022-12-18T07:29:31;-6.08;118.99
66726;HTU21D;53638;51.062;5.804;2022-12-18T07:31:57;-6.05;118.99
66726;HTU21D;53638;51.062;5.804;2022-12-18T07:34:22;-6.00;118.99
66726;HTU21D;53638;51.062;5.804;2022-12-18T07:36:48;-5.96;118.99
66726;HTU21D;53638;51.062;5.804;2022-12-18T07:39:14;-5.94;118.99
66726;HTU21D;53638;51.062;5.804;2022-12-18T07:41:40;-5.97;118.99
66726;HTU21D;53638;51.062;5.804;2022-12-18T07:44:12;-5.99;118.99
66726;HTU21D;53638;51.062;5.804;2022-12-18T07:46:38;-5.97;118.99
66726;HTU21D;53638;51.062;5.804;2022-12-18T07:49:04;-5.98;118.99
66726;HTU21D;53638;51.062;5.804;2022-12-18T07:51:30;-5.96;118.99
66726;HTU21D;53638;51.062;5.804;2022-12-18T07:53:56;-5.91;118.99
66726;HTU21D;53638;51.062;5.804;2022-12-18T07:56:22;-5.82;118.99
66726;HTU21D;53638;51.062;5.804;2022-12-18T07:58:48;-5.78;118.99
66726;HTU21D;53638;51.062;5.804;2022-12-18T08:01:14;-5.74;118.99
66726;HTU21D;53638;51.062;5.804;2022-12-18T08:03:40;-5.69;118.99
66726;HTU21D;53638;51.062;5.804;2022-12-18T08:06:08;-5.63;118.99
66726;HTU21D;53638;51.062;5.804;2022-12-18T08:08:35;-5.57;118.99
66726;HTU21D;53638;51.062;5.804;2022-12-18T08:11:01;-5.52;118.99
66726;HTU21D;53638;51.062;5.804;2022-12-18T08:13:28;-5.47;118.99
66726;HTU21D;53638;51.062;5.804;2022-12-18T08:15:57;-5.42;118.99
66726;HTU21D;53638;51.062;5.804;2022-12-18T08:18:23;-5.34;118.99
66726;HTU21D;53638;51.062;5.804;2022-12-18T08:20:49;-5.26;118.99
66726;HTU21D;53638;51.062;5.804;2022-12-18T08:23:16;-5.23;118.99
66726;HTU21D;53638;51.062;5.804;2022-12-18T08:25:41;-5.13;118.99
66726;HTU21D;53638;51.062;5.804;2022-12-18T08:28:10;-5.07;118.99
66726;HTU21D;53638;51.062;5.804;2022-12-18T08:30:36;-4.97;118.99
66726;HTU21D;53638;51.062;5.804;2022-12-18T08:33:05;-4.88;118.99
66726;HTU21D;53638;51.062;5.804;2022-12-18T08:35:35;-4.81;118.99
66726;HTU21D;53638;51.062;5.804;2022-12-18T08:38:00;-4.70;118.99
66726;HTU21D;53638;51.062;5.804;2022-12-18T08:40:26;-4.55;118.99
66726;HTU21D;53638;51.062;5.804;2022-12-18T08:42:52;-4.44;118.99
66726;HTU21D;53638;51.062;5.804;2022-12-18T08:45:37;-4.37;118.99
66726;HTU21D;53638;51.062;5.804;2022-12-18T08:48:03;-4.30;118.99
66726;HTU21D;53638;51.062;5.804;2022-12-18T08:50:29;-4.27;118.99
66726;HTU21D;53638;51.062;5.804;2022-12-18T08:52:54;-4.21;118.99
66726;HTU21D;53638;51.062;5.804;2022-12-18T08:55:20;-4.21;118.99
66726;HTU21D;53638;51.062;5.804;2022-12-18T08:57:48;-4.15;118.99
66726;HTU21D;53638;51.062;5.804;2022-12-18T09:00:15;-4.08;118.99
66726;HTU21D;53638;51.062;5.804;2022-12-18T09:02:41;-4.00;118.99
66726;HTU21D;53638;51.062;5.804;2022-12-18T09:05:07;-3.91;118.99
66726;HTU21D;53638;51.062;5.804;2022-12-18T09:07:33;-3.86;118.99
66726;HTU21D;53638;51.062;5.804;2022-12-18T09:09:59;-3.83;118.99
66726;HTU21D;53638;51.062;5.804;2022-12-18T09:12:25;-3.80;118.99
66726;HTU21D;53638;51.062;5.804;2022-12-18T09:14:53;-3.72;118.99
66726;HTU21D;53638;51.062;5.804;2022-12-18T09:17:19;-3.62;118.99
66726;HTU21D;53638;51.062;5.804;2022-12-18T09:19:45;-3.52;118.99
66726;HTU21D;53638;51.062;5.804;2022-12-18T09:22:10;-3.40;118.99
66726;HTU21D;53638;51.062;5.804;2022-12-18T09:24:36;-3.30;118.99
66726;HTU21D;53638;51.062;5.804;2022-12-18T09:27:02;-3.18;118.99
66726;HTU21D;53638;51.062;5.804;2022-12-18T09:29:29;-3.04;118.99
66726;HTU21D;53638;51.062;5.804;2022-12-18T09:31:55;-2.91;118.99
66726;HTU21D;53638;51.062;5.804;2022-12-18T09:34:21;-2.79;118.99
66726;HTU21D;53638;51.062;5.804;2022-12-18T09:36:47;-2.67;118.99
66726;HTU21D;53638;51.062;5.804;2022-12-18T09:39:14;-2.58;118.99
66726;HTU21D;53638;51.062;5.804;2022-12-18T09:41:45;-2.47;118.99
66726;HTU21D;53638;51.062;5.804;2022-12-18T09:47:02;-2.35;118.99
66726;HTU21D;53638;51.062;5.804;2022-12-18T09:49:34;-2.32;118.99
66726;HTU21D;53638;51.062;5.804;2022-12-18T09:54:39;-2.13;118.99
66726;HTU21D;53638;51.062;5.804;2022-12-18T09:57:15;-1.97;118.99
66726;HTU21D;53638;51.062;5.804;2022-12-18T09:59:58;-1.89;118.99
66726;HTU21D;53638;51.062;5.804;2022-12-18T10:02:37;-1.74;118.99
66726;HTU21D;53638;51.062;5.804;2022-12-18T10:05:09;-1.59;118.99
66726;HTU21D;53638;51.062;5.804;2022-12-18T10:07:40;-1.45;118.99
66726;HTU21D;53638;51.062;5.804;2022-12-18T10:10:23;-1.25;118.99
66726;HTU21D;53638;51.062;5.804;2022-12-18T10:21:00;-0.67;118.99
66726;HTU21D;53638;51.062;5.804;2022-12-18T10:23:41;-0.58;118.99
66726;HTU21D;53638;51.062;5.804;2022-12-18T10:26:10;-0.54;118.99
66726;HTU21D;53638;51.062;5.804;2022-12-18T10:28:40;-0.46;118.99
66726;HTU21D;53638;51.062;5.804;2022-12-18T10:31:21;-0.53;118.99
66726;HTU21D;53638;51.062;5.804;2022-12-18T10:33:47;-0.54;118.99
66726;HTU21D;53638;51.062;5.804;2022-12-18T10:36:14;-0.53;118.99
66726;HTU21D;53638;51.062;5.804;2022-12-18T10:38:40;-0.51;118.99
66726;HTU21D;53638;51.062;5.804;2022-12-18T10:41:24;-0.45;118.99
66726;HTU21D;53638;51.062;5.804;2022-12-18T10:46:45;-0.53;118.99
66726;HTU21D;53638;51.062;5.804;2022-12-18T10:49:27;-0.58;118.99
66726;HTU21D;53638;51.062;5.804;2022-12-18T10:52:17;-0.69;118.99
66726;HTU21D;53638;51.062;5.804;2022-12-18T10:54:52;-0.77;118.99
66726;HTU21D;53638;51.062;5.804;2022-12-18T10:59:54;-0.75;118.99
66726;HTU21D;53638;51.062;5.804;2022-12-18T11:02:29;-0.70;118.99
66726;HTU21D;53638;51.062;5.804;2022-12-18T11:04:58;-0.65;118.99
66726;HTU21D;53638;51.062;5.804;2022-12-18T11:07:24;-0.56;118.99
66726;HTU21D;53638;51.062;5.804;2022-12-18T11:10:02;-0.50;118.99
66726;HTU21D;53638;51.062;5.804;2022-12-18T11:12:29;-0.51;118.99
66726;HTU21D;53638;51.062;5.804;2022-12-18T11:14:56;-0.54;118.99
66726;HTU21D;53638;51.062;5.804;2022-12-18T11:17:33;-0.60;118.99
66726;HTU21D;53638;51.062;5.804;2022-12-18T11:20:06;-0.62;118.99
66726;HTU21D;53638;51.062;5.804;2022-12-18T11:22:56;-0.69;118.99
66726;HTU21D;53638;51.062;5.804;2022-12-18T11:25:23;-0.66;118.99
66726;HTU21D;53638;51.062;5.804;2022-12-18T11:27:56;-0.62;118.99
66726;HTU21D;53638;51.062;5.804;2022-12-18T11:30:27;-0.61;118.99
66726;HTU21D;53638;51.062;5.804;2022-12-18T11:33:03;-0.55;118.99
66726;HTU21D;53638;51.062;5.804;2022-12-18T11:38:05;-0.41;118.99
66726;HTU21D;53638;51.062;5.804;2022-12-18T11:40:36;-0.34;118.99
66726;HTU21D;53638;51.062;5.804;2022-12-18T11:43:13;-0.30;118.99
66726;HTU21D;53638;51.062;5.804;2022-12-18T11:45:50;-0.29;118.99
66726;HTU21D;53638;51.062;5.804;2022-12-18T11:48:34;-0.30;118.99
66726;HTU21D;53638;51.062;5.804;2022-12-18T11:51:11;-0.27;118.99
66726;HTU21D;53638;51.062;5.804;2022-12-18T11:53:38;-0.23;118.99
66726;HTU21D;53638;51.062;5.804;2022-12-18T11:56:26;-0.17;118.99
66726;HTU21D;53638;51.062;5.804;2022-12-18T11:59:09;-0.19;118.99
66726;HTU21D;53638;51.062;5.804;2022-12-18T12:01:51;-0.15;118.99
66726;HTU21D;53638;51.062;5.804;2022-12-18T12:09:44;0.06;118.99
66726;HTU21D;53638;51.062;5.804;2022-12-18T12:15:27;0.27;118.99
66726;HTU21D;53638;51.062;5.804;2022-12-18T12:18:18;0.38;118.99
66726;HTU21D;53638;51.062;5.804;2022-12-18T12:23:33;0.45;118.99
66726;HTU21D;53638;51.062;5.804;2022-12-18T12:26:11;0.51;118.99
66726;HTU21D;53638;51.062;5.804;2022-12-18T12:28:49;0.54;118.99
66726;HTU21D;53638;51.062;5.804;2022-12-18T12:31:47;0.59;118.99
66726;HTU21D;53638;51.062;5.804;2022-12-18T12:34:23;0.61;118.99
66726;HTU21D;53638;51.062;5.804;2022-12-18T12:37:08;0.60;118.99
66726;HTU21D;53638;51.062;5.804;2022-12-18T12:39:40;0.62;118.99
66726;HTU21D;53638;51.062;5.804;2022-12-18T12:42:29;0.65;118.99
66726;HTU21D;53638;51.062;5.804;2022-12-18T12:45:22;0.72;118.99
66726;HTU21D;53638;51.062;5.804;2022-12-18T12:47:52;0.74;118.99
66726;HTU21D;53638;51.062;5.804;2022-12-18T12:50:20;0.78;118.99
66726;HTU21D;53638;51.062;5.804;2022-12-18T12:52:53;0.79;118.99
66726;HTU21D;53638;51.062;5.804;2022-12-18T12:55:25;0.82;118.99
66726;HTU21D;53638;51.062;5.804;2022-12-18T13:00:39;0.88;118.99
66726;HTU21D;53638;51.062;5.804;2022-12-18T13:03:12;0.92;118.99
66726;HTU21D;53638;51.062;5.804;2022-12-18T13:05:54;0.96;118.99
66726;HTU21D;53638;51.062;5.804;2022-12-18T13:08:27;0.98;118.99
66726;HTU21D;53638;51.062;5.804;2022-12-18T13:10:55;1.02;118.99
66726;HTU21D;53638;51.062;5.804;2022-12-18T13:13:50;1.05;118.99
66726;HTU21D;53638;51.062;5.804;2022-12-18T13:16:20;1.04;118.99
66726;HTU21D;53638;51.062;5.804;2022-12-18T13:18:49;1.04;118.99
66726;HTU21D;53638;51.062;5.804;2022-12-18T13:21:29;1.04;118.99
66726;HTU21D;53638;51.062;5.804;2022-12-18T13:24:15;1.08;118.99
66726;HTU21D;53638;51.062;5.804;2022-12-18T13:26:45;1.13;118.99
66726;HTU21D;53638;51.062;5.804;2022-12-18T13:29:41;1.14;118.99
66726;HTU21D;53638;51.062;5.804;2022-12-18T13:32:22;1.12;118.99
66726;HTU21D;53638;51.062;5.804;2022-12-18T13:37:44;1.11;118.99
66726;HTU21D;53638;51.062;5.804;2022-12-18T13:45:58;1.12;118.99
66726;HTU21D;53638;51.062;5.804;2022-12-18T13:48:27;1.13;118.99
66726;HTU21D;53638;51.062;5.804;2022-12-18T13:53:29;1.18;118.99
66726;HTU21D;53638;51.062;5.804;2022-12-18T13:55:57;1.17;118.99
66726;HTU21D;53638;51.062;5.804;2022-12-18T13:58:23;1.20;118.99
66726;HTU21D;53638;51.062;5.804;2022-12-18T14:00:49;1.25;118.99
66726;HTU21D;53638;51.062;5.804;2022-12-18T14:03:22;1.26;118.99
66726;HTU21D;53638;51.062;5.804;2022-12-18T14:05:56;1.26;118.99
66726;HTU21D;53638;51.062;5.804;2022-12-18T14:08:23;1.27;118.99
66726;HTU21D;53638;51.062;5.804;2022-12-18T14:10:50;1.31;118.99
66726;HTU21D;53638;51.062;5.804;2022-12-18T14:13:31;1.29;118.99
66726;HTU21D;53638;51.062;5.804;2022-12-18T14:16:02;1.31;118.99
66726;HTU21D;53638;51.062;5.804;2022-12-18T14:18:45;1.32;118.99
66726;HTU21D;53638;51.062;5.804;2022-12-18T14:21:28;1.31;118.99
66726;HTU21D;53638;51.062;5.804;2022-12-18T14:24:14;1.31;118.99
66726;HTU21D;53638;51.062;5.804;2022-12-18T14:26:41;1.26;118.99
66726;HTU21D;53638;51.062;5.804;2022-12-18T14:29:27;1.23;118.99
66726;HTU21D;53638;51.062;5.804;2022-12-18T14:34:31;1.17;118.99
66726;HTU21D;53638;51.062;5.804;2022-12-18T14:36:57;1.18;118.99
66726;HTU21D;53638;51.062;5.804;2022-12-18T14:39:23;1.20;118.99
66726;HTU21D;53638;51.062;5.804;2022-12-18T14:41:51;1.21;118.99
66726;HTU21D;53638;51.062;5.804;2022-12-18T14:44:18;1.21;118.99
66726;HTU21D;53638;51.062;5.804;2022-12-18T14:46:46;1.20;118.99
66726;HTU21D;53638;51.062;5.804;2022-12-18T14:49:19;1.21;118.99
66726;HTU21D;53638;51.062;5.804;2022-12-18T14:51:53;1.23;118.99
66726;HTU21D;53638;51.062;5.804;2022-12-18T14:54:21;1.24;118.99
66726;HTU21D;53638;51.062;5.804;2022-12-18T14:57:03;1.25;118.99
66726;HTU21D;53638;51.062;5.804;2022-12-18T14:59:31;1.21;118.99
66726;HTU21D;53638;51.062;5.804;2022-12-18T15:02:10;1.20;118.99
66726;HTU21D;53638;51.062;5.804;2022-12-18T15:04:41;1.16;118.99
66726;HTU21D;53638;51.062;5.804;2022-12-18T15:07:14;1.13;118.99
66726;HTU21D;53638;51.062;5.804;2022-12-18T15:09:44;1.10;118.99
66726;HTU21D;53638;51.062;5.804;2022-12-18T15:12:31;1.13;118.99
66726;HTU21D;53638;51.062;5.804;2022-12-18T15:14:59;1.12;118.99
66726;HTU21D;53638;51.062;5.804;2022-12-18T15:17:26;1.10;118.99
66726;HTU21D;53638;51.062;5.804;2022-12-18T15:20:00;1.08;118.99
66726;HTU21D;53638;51.062;5.804;2022-12-18T15:22:30;1.07;118.99
66726;HTU21D;53638;51.062;5.804;2022-12-18T15:24:58;1.09;118.99
66726;HTU21D;53638;51.062;5.804;2022-12-18T15:27:30;1.07;118.99
66726;HTU21D;53638;51.062;5.804;2022-12-18T15:32:34;1.06;118.99
66726;HTU21D;53638;51.062;5.804;2022-12-18T15:35:16;1.06;118.99
66726;HTU21D;53638;51.062;5.804;2022-12-18T15:37:43;1.06;118.99
66726;HTU21D;53638;51.062;5.804;2022-12-18T15:40:15;1.03;118.99
66726;HTU21D;53638;51.062;5.804;2022-12-18T15:42:42;1.02;118.99
66726;HTU21D;53638;51.062;5.804;2022-12-18T15:45:27;1.01;118.99
66726;HTU21D;53638;51.062;5.804;2022-12-18T15:47:52;0.99;118.99
66726;HTU21D;53638;51.062;5.804;2022-12-18T15:50:18;0.95;118.99
66726;HTU21D;53638;51.062;5.804;2022-12-18T15:52:47;0.93;118.99
66726;HTU21D;53638;51.062;5.804;2022-12-18T15:55:16;0.92;118.99
66726;HTU21D;53638;51.062;5.804;2022-12-18T15:58:01;0.92;118.99
66726;HTU21D;53638;51.062;5.804;2022-12-18T16:00:27;0.91;118.99
66726;HTU21D;53638;51.062;5.804;2022-12-18T16:02:53;0.91;118.99
66726;HTU21D;53638;51.062;5.804;2022-12-18T16:05:21;0.92;118.99
66726;HTU21D;53638;51.062;5.804;2022-12-18T16:07:48;0.94;118.99
66726;HTU21D;53638;51.062;5.804;2022-12-18T16:10:14;0.93;118.99
66726;HTU21D;53638;51.062;5.804;2022-12-18T16:12:41;0.93;118.99
66726;HTU21D;53638;51.062;5.804;2022-12-18T16:15:10;0.92;118.99
66726;HTU21D;53638;51.062;5.804;2022-12-18T16:17:39;0.92;118.99
66726;HTU21D;53638;51.062;5.804;2022-12-18T16:20:13;0.95;118.99
66726;HTU21D;53638;51.062;5.804;2022-12-18T16:22:41;0.95;118.99
66726;HTU21D;53638;51.062;5.804;2022-12-18T16:25:23;0.96;118.99
66726;HTU21D;53638;51.062;5.804;2022-12-18T16:27:51;0.95;118.99
66726;HTU21D;53638;51.062;5.804;2022-12-18T16:30:20;0.95;118.99